Time;durP1;ratioP1;P1;durP2;ratioP2;P2;SDS_P1;SDS_P2;PMS_P1;PMS_P2;Temp;Humidity;BMP_temperature;BMP_pressure;BME280_temperature;BME280_humidity;BME280_pressure;Samples;Min_cycle;Max_cycle;Signal;HPM_P1;HPM_P2
2021/06/21 00:01:24;;;;;;;11.20;5.70;;;25.30;91.40;;;;;;5033989;28;20440;-82
2021/06/21 00:03:49;;;;;;;11.45;5.07;;;25.20;91.60;;;;;;5021408;28;20047;-81
2021/06/21 00:06:15;;;;;;;8.73;4.95;;;25.20;91.60;;;;;;5022969;28;20056;-82
2021/06/21 00:08:41;;;;;;;17.08;5.75;;;25.20;91.80;;;;;;5036344;28;20052;-80
2021/06/21 00:11:06;;;;;;;7.00;4.80;;;25.10;91.80;;;;;;5049526;28;20054;-82
2021/06/21 00:13:32;;;;;;;10.52;5.30;;;25.00;91.60;;;;;;5030613;28;20042;-81
2021/06/21 00:15:57;;;;;;;7.70;5.18;;;25.00;91.80;;;;;;5026703;28;20321;-82
2021/06/21 00:18:24;;;;;;;11.27;5.75;;;25.00;91.90;;;;;;5046913;28;20048;-82
2021/06/21 00:20:51;;;;;;;5.35;4.55;;;24.90;92.00;;;;;;5023192;28;20393;-81
2021/06/21 00:23:17;;;;;;;10.18;5.85;;;25.00;92.20;;;;;;5026742;28;20081;-81
2021/06/21 00:25:43;;;;;;;7.65;5.90;;;24.90;92.40;;;;;;5028579;28;20065;-82
2021/06/21 00:28:08;;;;;;;7.95;5.45;;;24.90;92.50;;;;;;5027681;28;20046;-83
2021/06/21 00:30:34;;;;;;;6.72;4.22;;;24.90;92.00;;;;;;5029400;28;20044;-81
2021/06/21 00:32:59;;;;;;;8.80;2.55;;;24.80;91.30;;;;;;5025506;28;20056;-82
2021/06/21 00:35:25;;;;;;;17.75;2.22;;;24.50;91.30;;;;;;5026449;28;20061;-83
2021/06/21 00:37:51;;;;;;;31.10;2.22;;;24.20;91.90;;;;;;5033465;28;20409;-83
2021/06/21 00:40:17;;;;;;;9.02;1.27;;;23.70;93.10;;;;;;5036533;28;20037;-85
2021/06/21 00:54:59;;;;;;;4.25;1.55;;;22.70;94.90;;;;;;5147094;27;20407;-83
2021/06/21 00:57:30;;;;;;;4.60;1.08;;;22.00;97.10;;;;;;5109758;28;20046;-84
2021/06/21 01:00:04;;;;;;;6.72;1.45;;;21.80;97.20;;;;;;5099067;28;20116;-84
2021/06/21 01:02:30;;;;;;;4.10;1.25;;;21.70;97.30;;;;;;5102540;28;20358;-83
2021/06/21 01:04:56;;;;;;;6.72;1.30;;;21.70;97.60;;;;;;5114314;28;20038;-81
2021/06/21 01:07:22;;;;;;;7.68;2.35;;;21.70;98.00;;;;;;5125089;28;20028;-81
2021/06/21 01:09:51;;;;;;;4.75;1.73;;;21.60;98.00;;;;;;5101972;28;20039;-82
2021/06/21 01:12:46;;;;;;;4.72;1.33;;;21.60;98.00;;;;;;5093622;28;20036;-81
2021/06/21 01:15:17;;;;;;;3.38;1.75;;;21.50;98.10;;;;;;5092897;28;20071;-81
2021/06/21 01:18:06;;;;;;;3.88;0.98;;;21.50;98.20;;;;;;5102432;28;20093;-83
2021/06/21 01:20:49;;;;;;;4.18;1.15;;;21.50;98.30;;;;;;5130036;28;20368;-82
2021/06/21 01:24:17;;;;;;;2.80;1.08;;;21.50;98.40;;;;;;5126319;28;20044;-81
2021/06/21 01:27:03;;;;;;;4.57;1.23;;;21.50;98.60;;;;;;5053626;28;20477;-83
2021/06/21 01:29:47;;;;;;;4.75;1.40;;;21.50;98.80;;;;;;5091658;28;20391;-81
2021/06/21 01:32:16;;;;;;;3.05;1.33;;;21.50;98.80;;;;;;5092584;28;20437;-81
2021/06/21 01:34:46;;;;;;;4.05;1.38;;;21.60;98.50;;;;;;5095446;28;20042;-82
2021/06/21 01:37:14;;;;;;;7.95;1.83;;;21.50;98.40;;;;;;5103435;28;20036;-82
2021/06/21 01:39:40;;;;;;;4.15;1.50;;;21.60;98.50;;;;;;5109031;28;20059;-82
2021/06/21 01:42:10;;;;;;;9.98;1.60;;;21.60;98.20;;;;;;5115769;28;20032;-81
2021/06/21 01:44:42;;;;;;;4.78;1.13;;;21.60;98.20;;;;;;5120573;28;20040;-82
2021/06/21 01:47:09;;;;;;;3.13;1.50;;;21.60;98.20;;;;;;5108071;28;20032;-82
2021/06/21 01:49:39;;;;;;;2.25;1.30;;;21.60;98.30;;;;;;5103019;28;20050;-82
2021/06/21 01:52:07;;;;;;;4.88;1.13;;;21.60;98.50;;;;;;5095751;28;20036;-81
2021/06/21 01:54:36;;;;;;;3.28;1.60;;;21.60;98.40;;;;;;5107059;28;20020;-82
2021/06/21 01:57:03;;;;;;;4.13;1.42;;;21.60;98.50;;;;;;5103325;28;20438;-83
2021/06/21 01:59:29;;;;;;;4.07;1.45;;;21.60;98.50;;;;;;5093751;28;20290;-82
2021/06/21 02:02:00;;;;;;;4.30;1.50;;;21.70;98.40;;;;;;5093916;28;20347;-83
2021/06/21 02:04:29;;;;;;;2.40;1.05;;;21.60;98.60;;;;;;5088969;28;20353;-83
2021/06/21 02:06:55;;;;;;;2.47;1.25;;;21.70;98.70;;;;;;5087598;28;20042;-82
2021/06/21 02:09:23;;;;;;;2.72;1.58;;;21.70;98.80;;;;;;5084944;28;20135;-82
2021/06/21 02:11:51;;;;;;;3.92;1.50;;;21.70;98.80;;;;;;5086120;28;20365;-82
2021/06/21 02:14:22;;;;;;;3.65;1.50;;;21.70;98.80;;;;;;5087869;28;20063;-82
2021/06/21 02:16:50;;;;;;;4.30;1.40;;;21.80;98.90;;;;;;5087313;28;20044;-83
2021/06/21 02:19:16;;;;;;;3.78;1.23;;;21.70;98.90;;;;;;5087437;28;20075;-82
2021/06/21 02:21:42;;;;;;;2.55;1.30;;;21.80;98.80;;;;;;5084078;28;20040;-81
2021/06/21 02:24:08;;;;;;;3.58;2.17;;;21.80;98.70;;;;;;5086438;28;20108;-81
2021/06/21 02:26:34;;;;;;;7.22;1.30;;;21.80;98.70;;;;;;5089080;28;20067;-81
2021/06/21 02:29:01;;;;;;;4.40;1.77;;;21.80;98.60;;;;;;5086377;28;20036;-81
2021/06/21 02:31:28;;;;;;;4.57;1.55;;;21.80;98.60;;;;;;5089299;28;20048;-81
2021/06/21 02:33:53;;;;;;;5.30;1.70;;;21.80;98.60;;;;;;5103399;28;20058;-81
2021/06/21 02:36:19;;;;;;;3.15;1.20;;;21.80;98.60;;;;;;5092187;28;20181;-81
2021/06/21 02:38:44;;;;;;;3.95;1.30;;;21.80;98.50;;;;;;5090457;28;20070;-81
2021/06/21 02:41:10;;;;;;;5.22;1.48;;;21.80;98.50;;;;;;5088803;28;20035;-81
2021/06/21 02:43:35;;;;;;;3.92;1.85;;;21.80;98.50;;;;;;5089215;28;20036;-81
2021/06/21 02:46:01;;;;;;;3.35;1.60;;;21.80;98.60;;;;;;5098815;28;20046;-82
2021/06/21 02:48:27;;;;;;;7.60;2.40;;;21.80;98.60;;;;;;5084369;28;20043;-82
2021/06/21 02:50:53;;;;;;;5.57;1.52;;;21.80;98.60;;;;;;5087142;28;20040;-82
2021/06/21 02:53:24;;;;;;;2.90;1.48;;;21.70;98.50;;;;;;5091340;28;20102;-81
2021/06/21 02:56:06;;;;;;;2.38;1.20;;;21.70;98.60;;;;;;5085245;28;20291;-82
2021/06/21 02:58:38;;;;;;;4.80;1.40;;;21.70;98.70;;;;;;5079517;28;20276;-82
2021/06/21 03:01:06;;;;;;;5.45;1.88;;;21.70;98.80;;;;;;5091840;28;20044;-81
2021/06/21 03:03:37;;;;;;;2.60;1.40;;;21.70;98.80;;;;;;5087878;28;20089;-82
2021/06/21 03:06:04;;;;;;;4.88;1.60;;;21.70;98.80;;;;;;5090158;28;20032;-81
2021/06/21 03:08:30;;;;;;;7.22;1.50;;;21.60;98.70;;;;;;5087216;28;20055;-81
2021/06/21 03:10:57;;;;;;;2.75;1.67;;;21.60;98.60;;;;;;5088290;28;20033;-81
2021/06/21 03:13:24;;;;;;;4.00;1.50;;;21.60;98.60;;;;;;5084436;28;20079;-81
2021/06/21 03:15:51;;;;;;;2.50;1.50;;;21.60;98.50;;;;;;5091665;28;20040;-81
2021/06/21 03:18:20;;;;;;;7.25;1.60;;;21.70;98.50;;;;;;5101385;28;20036;-81
2021/06/21 03:20:49;;;;;;;5.85;1.90;;;21.70;98.50;;;;;;5095594;28;20415;-82
2021/06/21 03:23:14;;;;;;;4.38;1.73;;;21.70;98.60;;;;;;5089276;28;20074;-81
2021/06/21 03:25:40;;;;;;;3.25;1.90;;;21.70;98.60;;;;;;5096168;28;20040;-81
2021/06/21 03:28:11;;;;;;;2.28;1.83;;;21.70;98.60;;;;;;5087192;28;20060;-81
2021/06/21 03:30:41;;;;;;;6.65;1.95;;;21.70;98.60;;;;;;5086464;28;20110;-81
2021/06/21 03:33:07;;;;;;;4.15;1.88;;;21.70;98.50;;;;;;5092605;28;20154;-81
2021/06/21 03:35:33;;;;;;;2.92;1.95;;;21.70;98.60;;;;;;5085322;28;20068;-81
2021/06/21 03:38:15;;;;;;;5.82;2.38;;;21.70;98.60;;;;;;5081051;28;20055;-81
2021/06/21 03:40:45;;;;;;;6.35;1.95;;;21.70;98.40;;;;;;5088406;28;20422;-82
2021/06/21 03:43:14;;;;;;;6.65;1.80;;;21.70;98.40;;;;;;5095377;28;20134;-82
2021/06/21 03:45:40;;;;;;;10.05;2.42;;;21.70;98.30;;;;;;5094475;28;20040;-81
2021/06/21 03:48:07;;;;;;;4.55;2.13;;;21.70;98.20;;;;;;5088938;28;20032;-81
2021/06/21 03:50:33;;;;;;;3.17;1.65;;;21.70;98.20;;;;;;5086392;28;20043;-81
2021/06/21 03:52:58;;;;;;;3.28;1.52;;;21.70;98.20;;;;;;5078681;28;20044;-82
2021/06/21 03:55:24;;;;;;;4.35;1.73;;;21.70;98.20;;;;;;5079416;28;20040;-81
2021/06/21 03:57:51;;;;;;;6.07;1.98;;;21.70;98.20;;;;;;5077937;28;20051;-81
2021/06/21 04:00:19;;;;;;;4.13;1.95;;;21.70;98.20;;;;;;5091437;28;20123;-81
2021/06/21 04:02:45;;;;;;;6.95;2.05;;;21.70;98.20;;;;;;5100941;28;20036;-81
2021/06/21 04:05:12;;;;;;;8.90;2.40;;;21.70;98.30;;;;;;5101769;28;20106;-81
2021/06/21 04:07:38;;;;;;;5.75;2.30;;;21.60;98.30;;;;;;5086534;28;20036;-81
2021/06/21 04:10:05;;;;;;;3.58;1.85;;;21.70;98.30;;;;;;5084657;28;20056;-81
2021/06/21 04:12:31;;;;;;;9.73;2.08;;;21.60;98.30;;;;;;5091772;28;20036;-81
2021/06/21 04:14:57;;;;;;;6.70;2.03;;;21.60;98.30;;;;;;5082762;28;20115;-82
2021/06/21 04:17:23;;;;;;;10.10;2.65;;;21.50;98.30;;;;;;5086100;28;20094;-81
2021/06/21 04:19:50;;;;;;;4.15;1.98;;;21.60;98.40;;;;;;5096979;28;20052;-80
2021/06/21 04:34:35;;;;;;;5.43;1.75;;;21.60;98.20;;;;;;5114798;27;20379;-81
2021/06/21 04:37:00;;;;;;;5.68;2.15;;;22.30;97.20;;;;;;5064352;28;20045;-81
2021/06/21 04:39:26;;;;;;;4.43;2.75;;;22.30;97.00;;;;;;5066884;28;20102;-81
2021/06/21 04:41:51;;;;;;;6.13;2.10;;;22.20;97.10;;;;;;5066885;28;20283;-81
2021/06/21 04:44:17;;;;;;;5.15;1.88;;;22.20;97.10;;;;;;5065501;28;20041;-81
2021/06/21 04:46:42;;;;;;;4.50;1.95;;;22.10;97.20;;;;;;5058900;28;20033;-81
2021/06/21 04:49:12;;;;;;;4.97;1.75;;;22.00;97.30;;;;;;5067482;28;20114;-81
2021/06/21 04:51:40;;;;;;;4.65;1.63;;;21.90;97.30;;;;;;5068100;28;20118;-81
2021/06/21 04:54:05;;;;;;;4.45;1.65;;;21.90;97.40;;;;;;5079004;28;20053;-81
2021/06/21 04:56:33;;;;;;;4.47;1.67;;;21.90;97.20;;;;;;5058263;28;20052;-81
2021/06/21 04:58:58;;;;;;;4.57;1.65;;;21.80;97.30;;;;;;5058395;28;20045;-81
2021/06/21 05:01:24;;;;;;;3.95;1.65;;;21.70;97.40;;;;;;5063940;28;20064;-81
2021/06/21 05:03:49;;;;;;;4.03;1.67;;;21.70;97.30;;;;;;5089585;28;20052;-81
2021/06/21 05:06:15;;;;;;;3.90;1.20;;;21.70;97.30;;;;;;5064216;28;20052;-82
2021/06/21 05:08:41;;;;;;;6.38;2.00;;;21.70;97.30;;;;;;5057739;28;20033;-81
2021/06/21 05:11:07;;;;;;;3.63;1.70;;;21.70;97.40;;;;;;5068355;28;20144;-81
2021/06/21 05:13:32;;;;;;;2.80;1.60;;;21.60;97.50;;;;;;5058772;28;20420;-81
2021/06/21 05:15:58;;;;;;;4.00;1.60;;;21.60;97.50;;;;;;5067004;28;20040;-81
2021/06/21 05:18:23;;;;;;;2.95;1.33;;;21.50;97.70;;;;;;5063842;28;20404;-81
2021/06/21 05:20:49;;;;;;;6.20;2.22;;;21.60;97.80;;;;;;5055507;28;20137;-81
2021/06/21 05:23:15;;;;;;;4.00;1.50;;;21.60;97.60;;;;;;5050347;28;20447;-81
2021/06/21 05:25:40;;;;;;;2.78;1.40;;;21.50;97.70;;;;;;5053276;28;20037;-82
2021/06/21 05:28:06;;;;;;;4.38;1.50;;;21.50;97.20;;;;;;5070727;28;20090;-82
2021/06/21 05:30:31;;;;;;;4.60;1.30;;;21.50;97.50;;;;;;5069679;28;20055;-81
2021/06/21 05:32:57;;;;;;;3.40;1.52;;;21.40;97.50;;;;;;5069736;28;20084;-82
2021/06/21 05:35:23;;;;;;;4.03;2.20;;;21.40;97.70;;;;;;5047433;28;20037;-82
2021/06/21 05:37:49;;;;;;;4.65;1.25;;;21.40;98.00;;;;;;5041316;28;20041;-81
2021/06/21 05:40:16;;;;;;;6.35;2.13;;;21.50;98.20;;;;;;5046275;28;20355;-82
2021/06/21 05:42:43;;;;;;;4.45;1.25;;;21.60;98.00;;;;;;5040104;28;20118;-81
2021/06/21 05:45:09;;;;;;;5.20;1.30;;;21.60;98.20;;;;;;5056310;28;20051;-82
2021/06/21 05:47:34;;;;;;;3.72;1.17;;;21.70;98.30;;;;;;5048938;28;20081;-82
2021/06/21 05:50:00;;;;;;;3.67;1.10;;;21.70;98.20;;;;;;5054056;28;20033;-82
2021/06/21 05:52:25;;;;;;;3.60;1.60;;;21.80;97.60;;;;;;5049122;28;20384;-83
2021/06/21 05:54:51;;;;;;;4.38;0.90;;;21.80;96.60;;;;;;5051607;28;20430;-82
2021/06/21 05:57:17;;;;;;;2.70;1.30;;;21.80;96.90;;;;;;5049308;28;20074;-82
2021/06/21 05:59:43;;;;;;;2.45;1.10;;;21.80;96.90;;;;;;5041956;28;20124;-81
2021/06/21 06:02:08;;;;;;;4.47;1.55;;;21.90;96.90;;;;;;5041099;28;20179;-81
2021/06/21 06:04:35;;;;;;;3.78;1.90;;;21.90;96.50;;;;;;5044285;28;20041;-81
2021/06/21 06:07:01;;;;;;;3.35;1.45;;;22.00;96.80;;;;;;5044658;28;20617;-81
2021/06/21 06:09:26;;;;;;;3.30;1.10;;;22.00;96.90;;;;;;5046967;28;20075;-81
2021/06/21 06:11:52;;;;;;;1.95;1.23;;;22.10;96.60;;;;;;5046229;28;20535;-81
2021/06/21 06:14:17;;;;;;;3.60;1.33;;;22.10;96.30;;;;;;5054881;28;20098;-80
2021/06/21 06:16:43;;;;;;;2.00;1.10;;;22.10;96.60;;;;;;5056120;28;20299;-81
2021/06/21 06:19:08;;;;;;;2.88;0.98;;;22.20;96.80;;;;;;5056689;28;20086;-81
2021/06/21 06:21:34;;;;;;;2.10;0.98;;;22.20;96.90;;;;;;5055913;28;20037;-81
2021/06/21 06:24:00;;;;;;;2.35;1.30;;;22.30;96.90;;;;;;5054650;28;20041;-80
2021/06/21 06:26:25;;;;;;;1.58;1.05;;;22.50;96.70;;;;;;5057625;28;20041;-81
2021/06/21 06:28:51;;;;;;;2.40;1.23;;;22.50;95.90;;;;;;5060495;28;20399;-81
2021/06/21 06:31:17;;;;;;;2.75;0.95;;;22.60;95.70;;;;;;5067435;28;20406;-82
2021/06/21 06:33:42;;;;;;;2.17;1.30;;;22.70;95.40;;;;;;5057731;28;20064;-80
2021/06/21 06:36:08;;;;;;;5.10;1.45;;;22.80;95.50;;;;;;5053319;28;20123;-81
2021/06/21 06:38:34;;;;;;;5.82;2.25;;;22.80;95.60;;;;;;5078179;28;20143;-82
2021/06/21 06:41:03;;;;;;;2.88;1.13;;;22.80;95.50;;;;;;5060000;28;20099;-82
2021/06/21 06:43:29;;;;;;;4.07;1.23;;;22.80;95.30;;;;;;5056509;28;20083;-82
2021/06/21 06:45:54;;;;;;;7.57;1.60;;;22.90;95.30;;;;;;5055752;28;20406;-82
2021/06/21 06:48:20;;;;;;;4.63;1.45;;;23.00;95.70;;;;;;5056615;28;20048;-81
2021/06/21 06:50:45;;;;;;;4.03;1.20;;;23.00;95.40;;;;;;5056257;28;20110;-81
2021/06/21 06:53:11;;;;;;;4.28;1.52;;;23.00;95.40;;;;;;5055952;28;20399;-82
2021/06/21 06:58:20;;;;;;;4.85;1.40;;;23.10;95.00;;;;;;5056501;28;20043;-82
2021/06/21 07:00:46;;;;;;;3.22;1.42;;;23.10;95.10;;;;;;5055274;28;20323;-82
2021/06/21 07:03:11;;;;;;;2.28;1.23;;;23.20;94.90;;;;;;5061196;28;20671;-82
2021/06/21 07:05:37;;;;;;;6.57;1.98;;;23.30;95.40;;;;;;5056969;28;20120;-82
2021/06/21 07:08:03;;;;;;;5.57;1.20;;;23.40;95.00;;;;;;5070972;28;20024;-84
2021/06/21 07:10:29;;;;;;;7.38;1.70;;;23.40;94.70;;;;;;5074381;28;20063;-83
2021/06/21 07:12:56;;;;;;;12.60;2.03;;;23.60;94.40;;;;;;5066063;28;20166;-83
2021/06/21 07:15:22;;;;;;;7.28;1.55;;;23.70;94.20;;;;;;5055269;28;20127;-83
2021/06/21 07:17:47;;;;;;;4.85;1.58;;;23.90;94.10;;;;;;5053813;28;20455;-82
2021/06/21 07:20:13;;;;;;;4.03;1.48;;;24.00;93.60;;;;;;5054581;28;20430;-82
2021/06/21 07:22:38;;;;;;;6.57;1.55;;;24.20;93.00;;;;;;5072926;28;20093;-83
2021/06/21 07:25:05;;;;;;;4.65;1.27;;;24.30;93.00;;;;;;5073552;28;20131;-82
2021/06/21 07:27:30;;;;;;;9.50;1.70;;;24.30;92.90;;;;;;5074809;28;20294;-82
2021/06/21 07:29:56;;;;;;;10.52;1.92;;;24.50;92.90;;;;;;5058535;28;20124;-83
2021/06/21 07:32:21;;;;;;;2.60;1.38;;;24.60;92.20;;;;;;5051754;28;20359;-82
2021/06/21 07:34:48;;;;;;;9.13;1.13;;;24.70;93.00;;;;;;5053921;28;20151;-81
2021/06/21 07:37:14;;;;;;;7.07;1.50;;;24.80;92.70;;;;;;5039856;28;20052;-81
2021/06/21 07:39:40;;;;;;;6.63;1.65;;;25.00;92.50;;;;;;5035539;28;20037;-81
2021/06/21 07:42:06;;;;;;;2.47;0.95;;;25.10;91.90;;;;;;5040681;28;20201;-86
2021/06/21 07:44:31;;;;;;;5.90;1.50;;;25.20;91.40;;;;;;5043538;28;20048;-86
2021/06/21 07:46:57;;;;;;;4.68;1.30;;;25.30;91.00;;;;;;5044888;28;20040;-84
2021/06/21 07:49:22;;;;;;;4.93;1.58;;;25.50;90.20;;;;;;5041680;28;20029;-85
2021/06/21 07:51:48;;;;;;;8.48;1.52;;;25.60;90.20;;;;;;5034687;28;20147;-85
2021/06/21 07:54:14;;;;;;;7.18;1.48;;;25.70;90.20;;;;;;5035078;28;20344;-86
2021/06/21 07:56:40;;;;;;;6.07;1.17;;;25.90;88.40;;;;;;5048036;28;20481;-84
2021/06/21 07:59:06;;;;;;;5.28;1.90;;;25.90;87.70;;;;;;5034910;28;20052;-86
2021/06/21 08:01:32;;;;;;;6.00;1.45;;;26.00;86.60;;;;;;5053054;28;20028;-85
2021/06/21 08:03:57;;;;;;;4.70;1.90;;;26.00;87.10;;;;;;5067996;28;20059;-86
2021/06/21 08:06:24;;;;;;;4.10;1.60;;;26.10;85.90;;;;;;5073059;28;20052;-84
2021/06/21 08:08:49;;;;;;;4.93;1.45;;;26.20;87.20;;;;;;5062627;28;20063;-85
2021/06/21 08:11:15;;;;;;;5.80;1.45;;;26.40;87.20;;;;;;5053156;28;20395;-85
2021/06/21 08:13:40;;;;;;;7.70;2.05;;;26.50;87.70;;;;;;5058737;28;20033;-85
2021/06/21 08:16:07;;;;;;;8.20;1.48;;;26.60;86.60;;;;;;5065828;28;20104;-84
2021/06/21 08:18:33;;;;;;;12.32;2.50;;;26.70;89.40;;;;;;5073641;28;20072;-85
2021/06/21 08:20:59;;;;;;;17.08;1.80;;;26.80;89.40;;;;;;5056637;28;20300;-85
2021/06/21 08:23:24;;;;;;;5.57;1.35;;;27.00;85.90;;;;;;5054031;28;20036;-85
2021/06/21 08:25:50;;;;;;;8.00;1.90;;;27.10;87.40;;;;;;5054267;28;20052;-85
2021/06/21 08:28:16;;;;;;;5.15;1.60;;;27.20;87.50;;;;;;5054814;28;20040;-86
2021/06/21 08:30:45;;;;;;;6.55;1.60;;;27.30;85.30;;;;;;5054787;28;20037;-86
2021/06/21 08:33:10;;;;;;;9.05;2.25;;;27.30;83.40;;;;;;5053103;28;20107;-84
2021/06/21 08:35:37;;;;;;;6.97;2.35;;;27.30;83.80;;;;;;5053094;28;20415;-85
2021/06/21 08:38:04;;;;;;;4.97;1.75;;;27.30;84.10;;;;;;5054438;28;20662;-85
2021/06/21 08:40:31;;;;;;;5.60;2.20;;;27.20;84.30;;;;;;5048658;28;20064;-85
2021/06/21 08:42:57;;;;;;;8.48;2.13;;;27.20;83.30;;;;;;5057651;28;20040;-86
2021/06/21 08:45:22;;;;;;;8.82;2.05;;;27.30;83.20;;;;;;5060051;28;20307;-86
2021/06/21 08:47:50;;;;;;;6.20;2.55;;;27.30;82.20;;;;;;5052355;28;20045;-85
2021/06/21 08:50:17;;;;;;;12.07;3.13;;;27.30;83.00;;;;;;5050608;28;20304;-85
2021/06/21 08:52:46;;;;;;;4.47;1.20;;;27.30;82.50;;;;;;5061734;28;20029;-85
2021/06/21 08:55:13;;;;;;;7.45;2.53;;;27.40;83.60;;;;;;5066820;28;20121;-85
2021/06/21 08:57:42;;;;;;;5.85;1.73;;;27.50;82.90;;;;;;5053237;28;20040;-84
2021/06/21 09:00:10;;;;;;;5.63;1.88;;;27.60;81.00;;;;;;5053132;28;20095;-85
2021/06/21 09:02:36;;;;;;;9.60;2.38;;;27.70;81.10;;;;;;5052454;28;20134;-85
2021/06/21 09:05:05;;;;;;;12.57;3.08;;;27.70;82.50;;;;;;5053141;28;20033;-85
2021/06/21 09:07:30;;;;;;;6.88;1.75;;;27.80;81.60;;;;;;5087982;28;20029;-85
2021/06/21 09:09:58;;;;;;;8.18;1.65;;;27.80;80.70;;;;;;5057918;28;20667;-85
2021/06/21 09:12:24;;;;;;;6.28;1.83;;;28.00;80.60;;;;;;5076920;28;20055;-85
2021/06/21 09:14:51;;;;;;;5.63;1.35;;;28.00;78.80;;;;;;5071264;28;20047;-84
2021/06/21 09:17:22;;;;;;;9.40;1.23;;;28.10;80.10;;;;;;5047950;28;20044;-85
2021/06/21 09:19:54;;;;;;;6.90;2.20;;;28.10;77.90;;;;;;5039023;28;20120;-85
2021/06/21 09:22:28;;;;;;;7.30;2.50;;;28.20;76.90;;;;;;5094950;28;20029;-85
2021/06/21 09:24:57;;;;;;;7.95;1.75;;;28.30;77.00;;;;;;5062892;28;20024;-85
2021/06/21 09:27:24;;;;;;;5.32;1.52;;;28.30;76.90;;;;;;5040098;28;20120;-85
2021/06/21 09:29:52;;;;;;;8.55;1.98;;;28.40;76.20;;;;;;5060670;28;20037;-85
2021/06/21 09:32:18;;;;;;;6.95;2.08;;;28.40;76.50;;;;;;5073662;28;20122;-86
2021/06/21 09:34:44;;;;;;;6.75;2.17;;;28.50;77.50;;;;;;5062383;28;20040;-86
2021/06/21 09:37:15;;;;;;;7.07;1.55;;;28.50;74.40;;;;;;5070422;28;20036;-85
2021/06/21 09:39:43;;;;;;;7.97;2.43;;;28.60;75.10;;;;;;5062448;28;20124;-86
2021/06/21 09:42:22;;;;;;;10.68;2.28;;;28.60;74.80;;;;;;5036935;28;20068;-86
2021/06/21 09:44:54;;;;;;;5.45;1.40;;;28.60;75.70;;;;;;5036324;28;20043;-84
2021/06/21 09:47:24;;;;;;;9.10;2.00;;;28.80;75.30;;;;;;5052583;28;20068;-84
2021/06/21 09:50:13;;;;;;;6.55;1.77;;;28.80;75.90;;;;;;5055733;28;20064;-87
2021/06/21 09:52:44;;;;;;;6.32;2.67;;;28.80;74.70;;;;;;5055027;28;20179;-85
2021/06/21 09:55:29;;;;;;;7.55;1.92;;;28.90;74.90;;;;;;5049847;28;20404;-86
2021/06/21 09:58:20;;;;;;;6.50;1.80;;;29.00;76.60;;;;;;5055842;28;20041;-85
2021/06/21 10:00:51;;;;;;;7.30;1.67;;;29.10;76.00;;;;;;5056621;28;20069;-87
2021/06/21 10:03:27;;;;;;;11.30;2.47;;;29.30;72.90;;;;;;5056322;28;20048;-86
2021/06/21 10:06:13;;;;;;;5.93;1.90;;;29.30;74.40;;;;;;5058664;28;20183;-86
2021/06/21 10:08:53;;;;;;;10.63;2.03;;;29.20;74.40;;;;;;5065179;28;20039;-85
2021/06/21 10:11:34;;;;;;;4.53;1.48;;;29.10;73.60;;;;;;5057311;28;20036;-85
2021/06/21 10:14:08;;;;;;;7.00;2.42;;;29.10;73.50;;;;;;5057547;28;20037;-85
2021/06/21 10:16:35;;;;;;;9.15;1.70;;;29.20;76.10;;;;;;5056885;28;20508;-84
2021/06/21 10:19:03;;;;;;;5.15;1.60;;;29.30;79.00;;;;;;5055590;28;20051;-85
2021/06/21 10:21:30;;;;;;;6.22;1.55;;;29.40;74.40;;;;;;5044415;28;20497;-85
2021/06/21 10:23:56;;;;;;;13.80;2.40;;;29.50;72.60;;;;;;5053165;28;20386;-86
2021/06/21 10:26:22;;;;;;;5.78;1.65;;;29.40;73.50;;;;;;5053854;28;20399;-84
2021/06/21 10:28:50;;;;;;;4.25;1.67;;;29.40;74.70;;;;;;5054160;28;20063;-84
2021/06/21 10:31:27;;;;;;;10.10;1.75;;;29.40;73.50;;;;;;5045134;28;20098;-84
2021/06/21 10:33:58;;;;;;;5.70;1.40;;;29.60;73.80;;;;;;5057219;28;20353;-85
2021/06/21 10:36:40;;;;;;;4.60;1.48;;;29.70;73.70;;;;;;5052215;28;20043;-84
2021/06/21 10:39:14;;;;;;;5.70;1.98;;;29.80;74.40;;;;;;5047393;28;20041;-85
2021/06/21 10:41:45;;;;;;;7.05;1.60;;;30.00;75.10;;;;;;5055226;28;20043;-85
2021/06/21 10:44:37;;;;;;;6.65;1.27;;;30.10;72.20;;;;;;5065094;28;20048;-86
2021/06/21 10:47:25;;;;;;;4.28;0.88;;;30.20;72.70;;;;;;5053149;28;20036;-84
2021/06/21 10:50:01;;;;;;;6.05;1.20;;;30.30;72.00;;;;;;5052286;28;20045;-85
2021/06/21 10:52:33;;;;;;;5.35;1.30;;;30.50;72.00;;;;;;5046284;28;20037;-85
2021/06/21 10:55:21;;;;;;;6.47;1.10;;;30.60;67.40;;;;;;5040647;28;20096;-85
2021/06/21 10:57:54;;;;;;;12.82;1.63;;;30.60;69.00;;;;;;5045346;28;20072;-85
2021/06/21 11:00:33;;;;;;;11.65;1.90;;;30.70;69.20;;;;;;5052101;28;20045;-85
2021/06/21 11:02:59;;;;;;;2.90;0.93;;;30.80;71.00;;;;;;5075086;28;20118;-85
2021/06/21 11:05:39;;;;;;;7.95;1.42;;;30.70;65.40;;;;;;5036705;28;20037;-85
2021/06/21 11:08:13;;;;;;;7.00;1.30;;;30.80;68.80;;;;;;5045393;28;20075;-86
2021/06/21 11:10:39;;;;;;;4.55;1.83;;;30.90;70.70;;;;;;5046871;28;20040;-86
2021/06/21 11:13:35;;;;;;;4.93;0.98;;;31.00;66.20;;;;;;5047419;28;20454;-86
2021/06/21 11:16:18;;;;;;;6.40;1.30;;;31.10;66.90;;;;;;5076824;28;20072;-84
2021/06/21 11:18:46;;;;;;;7.35;1.65;;;31.20;68.40;;;;;;5070167;28;20068;-85
2021/06/21 11:21:16;;;;;;;7.22;1.60;;;31.40;69.10;;;;;;5063567;28;20028;-85
2021/06/21 11:23:44;;;;;;;8.73;2.15;;;31.50;65.00;;;;;;5058559;28;20064;-85
2021/06/21 11:26:09;;;;;;;4.55;1.10;;;31.50;65.50;;;;;;5056378;28;20043;-84
2021/06/21 11:28:45;;;;;;;6.07;1.30;;;31.50;64.70;;;;;;5053487;28;20033;-84
2021/06/21 11:31:23;;;;;;;7.45;1.30;;;31.60;68.10;;;;;;5052615;28;20117;-84
2021/06/21 11:34:01;;;;;;;4.25;0.90;;;31.60;62.00;;;;;;5059624;28;20084;-84
2021/06/21 11:36:44;;;;;;;3.00;0.95;;;31.40;62.60;;;;;;5050765;28;20052;-84
2021/06/21 11:39:28;;;;;;;5.90;1.27;;;31.30;65.70;;;;;;5053399;28;20123;-85
2021/06/21 11:42:02;;;;;;;2.75;1.38;;;31.20;65.20;;;;;;5054341;28;20041;-85
2021/06/21 11:44:39;;;;;;;4.72;1.10;;;31.30;64.50;;;;;;5052363;28;20060;-84
2021/06/21 11:47:14;;;;;;;4.28;0.98;;;31.20;65.90;;;;;;5054154;28;20045;-84
2021/06/21 11:49:43;;;;;;;3.40;1.00;;;31.30;62.90;;;;;;5052399;28;20041;-84
2021/06/21 11:52:09;;;;;;;3.47;0.98;;;31.40;62.80;;;;;;5053212;28;20043;-84
2021/06/21 11:54:40;;;;;;;9.68;1.05;;;31.40;63.50;;;;;;5055709;28;20037;-84
2021/06/21 11:57:07;;;;;;;6.18;1.50;;;31.40;60.80;;;;;;5067512;28;20041;-81
2021/06/21 11:59:35;;;;;;;4.70;1.20;;;31.40;59.20;;;;;;5075687;28;20053;-84
2021/06/21 12:02:06;;;;;;;6.32;1.65;;;31.40;64.20;;;;;;5061828;28;20034;-84
2021/06/21 12:04:32;;;;;;;6.82;1.85;;;31.50;59.90;;;;;;5055880;28;20111;-85
2021/06/21 12:06:58;;;;;;;6.07;1.67;;;31.40;59.50;;;;;;5057635;28;20026;-84
2021/06/21 12:09:24;;;;;;;2.05;0.60;;;31.40;62.70;;;;;;5055698;28;20312;-85
2021/06/21 12:11:53;;;;;;;5.03;1.00;;;31.40;64.50;;;;;;5037573;28;20033;-84
2021/06/21 12:14:22;;;;;;;4.45;1.20;;;31.50;62.40;;;;;;5047696;28;20102;-84
2021/06/21 12:16:47;;;;;;;6.55;1.35;;;31.50;61.50;;;;;;5045451;28;20041;-85
2021/06/21 12:19:13;;;;;;;3.05;1.10;;;31.60;62.30;;;;;;5048892;28;20059;-84
2021/06/21 12:21:41;;;;;;;3.30;0.90;;;31.60;59.90;;;;;;5053519;28;20044;-84
2021/06/21 12:24:25;;;;;;;3.45;1.20;;;31.70;63.30;;;;;;5081480;28;20207;-85
2021/06/21 12:26:56;;;;;;;2.97;0.80;;;31.80;62.00;;;;;;5064984;28;20042;-84
2021/06/21 12:29:33;;;;;;;9.65;1.38;;;31.70;61.50;;;;;;5051171;28;20056;-85
2021/06/21 12:32:03;;;;;;;3.45;1.35;;;31.60;60.00;;;;;;5057877;28;20098;-84
2021/06/21 12:34:49;;;;;;;2.28;0.80;;;31.60;62.90;;;;;;5066589;28;20040;-85
2021/06/21 12:37:21;;;;;;;6.05;1.35;;;31.70;66.10;;;;;;5051770;28;20045;-85
2021/06/21 12:39:51;;;;;;;5.13;1.15;;;31.90;64.10;;;;;;5040890;28;20036;-83
2021/06/21 12:42:18;;;;;;;6.07;1.45;;;31.90;62.70;;;;;;5051645;28;20113;-84
2021/06/21 12:44:46;;;;;;;5.95;0.98;;;32.00;61.50;;;;;;5087945;28;20083;-84
2021/06/21 12:47:25;;;;;;;3.17;1.27;;;32.00;59.90;;;;;;5082039;28;20037;-83
2021/06/21 12:49:53;;;;;;;4.85;1.90;;;32.10;57.90;;;;;;5057099;28;20037;-84
2021/06/21 12:52:21;;;;;;;4.93;1.20;;;32.20;58.30;;;;;;5056866;28;20387;-84
2021/06/21 12:54:46;;;;;;;4.03;1.05;;;32.20;57.90;;;;;;5057570;28;20041;-83
2021/06/21 12:57:12;;;;;;;4.18;0.70;;;32.40;58.70;;;;;;5056765;28;20471;-83
2021/06/21 12:59:43;;;;;;;7.68;0.77;;;32.50;58.70;;;;;;5042848;28;20041;-84
2021/06/21 13:02:25;;;;;;;4.55;1.02;;;32.60;57.80;;;;;;5041538;28;20044;-84
2021/06/21 13:05:03;;;;;;;4.75;1.25;;;32.60;58.20;;;;;;5042096;28;20297;-84
2021/06/21 13:07:29;;;;;;;5.82;1.13;;;32.60;57.60;;;;;;5040836;28;20025;-85
2021/06/21 13:09:58;;;;;;;3.22;1.20;;;32.60;57.90;;;;;;5045798;28;20024;-85
2021/06/21 13:12:24;;;;;;;9.55;1.42;;;32.60;57.30;;;;;;5057136;28;20041;-84
2021/06/21 13:14:50;;;;;;;6.25;1.33;;;32.40;59.40;;;;;;5057404;28;20276;-84
2021/06/21 13:17:25;;;;;;;5.47;1.00;;;32.40;60.00;;;;;;5059726;28;20051;-82
2021/06/21 13:19:52;;;;;;;3.08;1.00;;;32.40;59.30;;;;;;5038959;28;20037;-82
2021/06/21 13:22:34;;;;;;;4.50;0.95;;;32.40;58.60;;;;;;5038518;28;20076;-79